sensor_id;sensor_type;location;lat;lon;timestamp;P1;durP1;ratioP1;P2;durP2;ratioP2
32295;SDS011;18781;51.550;5.418;2024-01-30T00:02:15;13.73;;;8.65;;
32295;SDS011;18781;51.550;5.418;2024-01-30T00:04:41;14.93;;;8.50;;
32295;SDS011;18781;51.550;5.418;2024-01-30T00:07:07;15.40;;;8.48;;
32295;SDS011;18781;51.550;5.418;2024-01-30T00:09:33;14.23;;;8.80;;
32295;SDS011;18781;51.550;5.418;2024-01-30T00:11:59;15.60;;;8.55;;
32295;SDS011;18781;51.550;5.418;2024-01-30T00:14:24;18.20;;;9.32;;
32295;SDS011;18781;51.550;5.418;2024-01-30T00:16:50;14.95;;;8.43;;
32295;SDS011;18781;51.550;5.418;2024-01-30T00:19:16;14.00;;;9.10;;
32295;SDS011;18781;51.550;5.418;2024-01-30T00:21:42;15.55;;;9.00;;
32295;SDS011;18781;51.550;5.418;2024-01-30T00:24:08;13.80;;;8.23;;
32295;SDS011;18781;51.550;5.418;2024-01-30T00:26:34;13.13;;;8.73;;
32295;SDS011;18781;51.550;5.418;2024-01-30T00:28:59;14.82;;;9.05;;
32295;SDS011;18781;51.550;5.418;2024-01-30T00:31:25;15.32;;;8.30;;
32295;SDS011;18781;51.550;5.418;2024-01-30T00:33:51;13.70;;;8.23;;
32295;SDS011;18781;51.550;5.418;2024-01-30T00:36:17;13.60;;;8.15;;
32295;SDS011;18781;51.550;5.418;2024-01-30T00:38:42;15.38;;;8.57;;
32295;SDS011;18781;51.550;5.418;2024-01-30T00:41:08;15.77;;;8.70;;
32295;SDS011;18781;51.550;5.418;2024-01-30T00:43:34;13.40;;;8.10;;
32295;SDS011;18781;51.550;5.418;2024-01-30T00:46:00;15.70;;;8.90;;
32295;SDS011;18781;51.550;5.418;2024-01-30T00:48:26;13.07;;;7.68;;
32295;SDS011;18781;51.550;5.418;2024-01-30T00:50:52;12.57;;;8.40;;
32295;SDS011;18781;51.550;5.418;2024-01-30T00:53:17;14.00;;;9.65;;
32295;SDS011;18781;51.550;5.418;2024-01-30T00:55:43;16.08;;;7.97;;
32295;SDS011;18781;51.550;5.418;2024-01-30T00:58:08;14.13;;;7.93;;
32295;SDS011;18781;51.550;5.418;2024-01-30T01:00:34;12.40;;;8.15;;
32295;SDS011;18781;51.550;5.418;2024-01-30T01:03:00;17.17;;;8.32;;
32295;SDS011;18781;51.550;5.418;2024-01-30T01:05:26;13.85;;;8.18;;
32295;SDS011;18781;51.550;5.418;2024-01-30T01:07:51;14.15;;;8.13;;
32295;SDS011;18781;51.550;5.418;2024-01-30T01:10:17;14.65;;;8.05;;
32295;SDS011;18781;51.550;5.418;2024-01-30T01:12:43;13.80;;;8.75;;
32295;SDS011;18781;51.550;5.418;2024-01-30T01:15:10;13.60;;;8.23;;
32295;SDS011;18781;51.550;5.418;2024-01-30T01:17:39;12.48;;;7.75;;
32295;SDS011;18781;51.550;5.418;2024-01-30T01:20:07;16.05;;;8.85;;
32295;SDS011;18781;51.550;5.418;2024-01-30T01:22:33;13.60;;;7.82;;
32295;SDS011;18781;51.550;5.418;2024-01-30T01:24:59;14.40;;;8.27;;
32295;SDS011;18781;51.550;5.418;2024-01-30T01:27:25;11.93;;;8.32;;
32295;SDS011;18781;51.550;5.418;2024-01-30T01:29:52;13.93;;;7.95;;
32295;SDS011;18781;51.550;5.418;2024-01-30T01:32:18;15.18;;;8.25;;
32295;SDS011;18781;51.550;5.418;2024-01-30T01:34:43;13.30;;;8.02;;
32295;SDS011;18781;51.550;5.418;2024-01-30T01:37:09;17.27;;;7.97;;
32295;SDS011;18781;51.550;5.418;2024-01-30T01:39:35;14.60;;;7.68;;
32295;SDS011;18781;51.550;5.418;2024-01-30T01:42:01;16.52;;;7.78;;
32295;SDS011;18781;51.550;5.418;2024-01-30T01:44:27;11.35;;;7.28;;
32295;SDS011;18781;51.550;5.418;2024-01-30T01:46:52;13.05;;;8.23;;
32295;SDS011;18781;51.550;5.418;2024-01-30T01:49:19;13.00;;;8.43;;
32295;SDS011;18781;51.550;5.418;2024-01-30T01:51:45;13.10;;;8.10;;
32295;SDS011;18781;51.550;5.418;2024-01-30T01:54:13;15.98;;;8.13;;
32295;SDS011;18781;51.550;5.418;2024-01-30T01:56:40;13.23;;;8.38;;
32295;SDS011;18781;51.550;5.418;2024-01-30T01:59:08;14.43;;;7.18;;
32295;SDS011;18781;51.550;5.418;2024-01-30T02:01:37;13.52;;;8.52;;
32295;SDS011;18781;51.550;5.418;2024-01-30T02:04:03;19.58;;;7.72;;
32295;SDS011;18781;51.550;5.418;2024-01-30T02:06:29;13.73;;;8.45;;
32295;SDS011;18781;51.550;5.418;2024-01-30T02:08:56;12.95;;;8.30;;
32295;SDS011;18781;51.550;5.418;2024-01-30T02:11:22;14.68;;;8.15;;
32295;SDS011;18781;51.550;5.418;2024-01-30T02:13:48;13.43;;;7.72;;
32295;SDS011;18781;51.550;5.418;2024-01-30T02:16:15;15.70;;;8.93;;
32295;SDS011;18781;51.550;5.418;2024-01-30T02:18:42;14.65;;;7.70;;
32295;SDS011;18781;51.550;5.418;2024-01-30T02:21:12;16.80;;;8.93;;
32295;SDS011;18781;51.550;5.418;2024-01-30T02:23:39;13.23;;;7.95;;
32295;SDS011;18781;51.550;5.418;2024-01-30T02:26:06;15.27;;;8.30;;
32295;SDS011;18781;51.550;5.418;2024-01-30T02:28:31;13.48;;;8.05;;
32295;SDS011;18781;51.550;5.418;2024-01-30T02:30:57;14.98;;;7.80;;
32295;SDS011;18781;51.550;5.418;2024-01-30T02:33:23;12.45;;;7.95;;
32295;SDS011;18781;51.550;5.418;2024-01-30T02:35:48;15.18;;;7.53;;
32295;SDS011;18781;51.550;5.418;2024-01-30T02:38:15;14.50;;;7.35;;
32295;SDS011;18781;51.550;5.418;2024-01-30T02:40:40;12.73;;;8.00;;
32295;SDS011;18781;51.550;5.418;2024-01-30T02:43:06;11.45;;;7.70;;
32295;SDS011;18781;51.550;5.418;2024-01-30T02:45:32;16.90;;;7.93;;
32295;SDS011;18781;51.550;5.418;2024-01-30T02:47:57;18.20;;;8.68;;
32295;SDS011;18781;51.550;5.418;2024-01-30T02:50:23;15.38;;;8.07;;
32295;SDS011;18781;51.550;5.418;2024-01-30T02:52:49;17.05;;;7.78;;
32295;SDS011;18781;51.550;5.418;2024-01-30T02:55:14;11.90;;;7.57;;
32295;SDS011;18781;51.550;5.418;2024-01-30T02:57:42;13.55;;;8.02;;
32295;SDS011;18781;51.550;5.418;2024-01-30T03:00:08;15.88;;;8.60;;
32295;SDS011;18781;51.550;5.418;2024-01-30T03:02:35;14.93;;;8.13;;
32295;SDS011;18781;51.550;5.418;2024-01-30T03:05:01;12.10;;;8.02;;
32295;SDS011;18781;51.550;5.418;2024-01-30T03:07:26;11.75;;;7.75;;
32295;SDS011;18781;51.550;5.418;2024-01-30T03:09:52;15.77;;;7.43;;
32295;SDS011;18781;51.550;5.418;2024-01-30T03:12:20;15.95;;;7.85;;
32295;SDS011;18781;51.550;5.418;2024-01-30T03:14:46;13.63;;;7.25;;
32295;SDS011;18781;51.550;5.418;2024-01-30T03:17:12;15.07;;;8.15;;
32295;SDS011;18781;51.550;5.418;2024-01-30T03:19:37;13.98;;;7.85;;
32295;SDS011;18781;51.550;5.418;2024-01-30T03:22:03;12.30;;;7.47;;
32295;SDS011;18781;51.550;5.418;2024-01-30T03:24:28;11.80;;;7.32;;
32295;SDS011;18781;51.550;5.418;2024-01-30T03:26:54;14.77;;;8.10;;
32295;SDS011;18781;51.550;5.418;2024-01-30T03:29:20;12.75;;;7.30;;
32295;SDS011;18781;51.550;5.418;2024-01-30T03:31:45;15.05;;;8.18;;
32295;SDS011;18781;51.550;5.418;2024-01-30T03:34:11;12.68;;;7.03;;
32295;SDS011;18781;51.550;5.418;2024-01-30T03:36:36;11.73;;;7.28;;
32295;SDS011;18781;51.550;5.418;2024-01-30T03:39:02;14.50;;;7.90;;
32295;SDS011;18781;51.550;5.418;2024-01-30T03:41:28;14.52;;;7.78;;
32295;SDS011;18781;51.550;5.418;2024-01-30T03:43:53;10.48;;;7.30;;
32295;SDS011;18781;51.550;5.418;2024-01-30T03:46:19;12.77;;;7.25;;
32295;SDS011;18781;51.550;5.418;2024-01-30T03:48:45;14.00;;;8.23;;
32295;SDS011;18781;51.550;5.418;2024-01-30T03:51:11;12.68;;;7.65;;
32295;SDS011;18781;51.550;5.418;2024-01-30T03:53:43;17.60;;;8.38;;
32295;SDS011;18781;51.550;5.418;2024-01-30T03:56:10;13.80;;;7.90;;
32295;SDS011;18781;51.550;5.418;2024-01-30T03:58:36;14.02;;;7.65;;
32295;SDS011;18781;51.550;5.418;2024-01-30T04:01:01;15.55;;;7.13;;
32295;SDS011;18781;51.550;5.418;2024-01-30T04:03:27;12.77;;;7.70;;
32295;SDS011;18781;51.550;5.418;2024-01-30T04:05:53;15.13;;;8.07;;
32295;SDS011;18781;51.550;5.418;2024-01-30T04:08:19;19.17;;;7.88;;
32295;SDS011;18781;51.550;5.418;2024-01-30T04:10:44;16.70;;;7.65;;
32295;SDS011;18781;51.550;5.418;2024-01-30T04:13:10;11.07;;;7.07;;
32295;SDS011;18781;51.550;5.418;2024-01-30T04:15:36;12.00;;;7.30;;
32295;SDS011;18781;51.550;5.418;2024-01-30T04:18:02;13.43;;;7.68;;
32295;SDS011;18781;51.550;5.418;2024-01-30T04:20:28;10.50;;;7.57;;
32295;SDS011;18781;51.550;5.418;2024-01-30T04:22:54;11.43;;;7.15;;
32295;SDS011;18781;51.550;5.418;2024-01-30T04:25:20;13.35;;;7.13;;
32295;SDS011;18781;51.550;5.418;2024-01-30T04:27:46;15.07;;;7.68;;
32295;SDS011;18781;51.550;5.418;2024-01-30T04:30:11;17.15;;;8.20;;
32295;SDS011;18781;51.550;5.418;2024-01-30T04:32:37;12.70;;;6.72;;
32295;SDS011;18781;51.550;5.418;2024-01-30T04:35:03;14.05;;;7.15;;
32295;SDS011;18781;51.550;5.418;2024-01-30T04:37:29;10.60;;;7.07;;
32295;SDS011;18781;51.550;5.418;2024-01-30T04:39:55;11.80;;;6.57;;
32295;SDS011;18781;51.550;5.418;2024-01-30T04:42:20;15.02;;;7.55;;
32295;SDS011;18781;51.550;5.418;2024-01-30T04:44:46;12.55;;;7.13;;
32295;SDS011;18781;51.550;5.418;2024-01-30T04:47:11;11.02;;;6.70;;
32295;SDS011;18781;51.550;5.418;2024-01-30T04:49:40;15.50;;;7.28;;
32295;SDS011;18781;51.550;5.418;2024-01-30T04:52:06;15.18;;;6.90;;
32295;SDS011;18781;51.550;5.418;2024-01-30T04:54:33;12.50;;;7.07;;
32295;SDS011;18781;51.550;5.418;2024-01-30T04:56:59;12.63;;;6.93;;
32295;SDS011;18781;51.550;5.418;2024-01-30T04:59:25;12.05;;;6.80;;
32295;SDS011;18781;51.550;5.418;2024-01-30T05:01:51;16.58;;;7.55;;
32295;SDS011;18781;51.550;5.418;2024-01-30T05:04:16;14.82;;;7.20;;
32295;SDS011;18781;51.550;5.418;2024-01-30T05:06:42;15.07;;;6.88;;
32295;SDS011;18781;51.550;5.418;2024-01-30T05:09:08;12.23;;;7.40;;
32295;SDS011;18781;51.550;5.418;2024-01-30T05:11:40;12.95;;;7.05;;
32295;SDS011;18781;51.550;5.418;2024-01-30T05:14:06;11.50;;;6.82;;
32295;SDS011;18781;51.550;5.418;2024-01-30T05:16:33;14.07;;;7.35;;
32295;SDS011;18781;51.550;5.418;2024-01-30T05:18:59;13.48;;;7.57;;
32295;SDS011;18781;51.550;5.418;2024-01-30T05:21:25;13.15;;;7.07;;
32295;SDS011;18781;51.550;5.418;2024-01-30T05:23:50;12.90;;;7.38;;
32295;SDS011;18781;51.550;5.418;2024-01-30T05:26:16;12.38;;;7.10;;
32295;SDS011;18781;51.550;5.418;2024-01-30T05:28:42;13.02;;;6.95;;
32295;SDS011;18781;51.550;5.418;2024-01-30T05:31:09;12.05;;;6.70;;
32295;SDS011;18781;51.550;5.418;2024-01-30T05:33:35;12.90;;;7.10;;
32295;SDS011;18781;51.550;5.418;2024-01-30T05:36:01;11.35;;;6.82;;
32295;SDS011;18781;51.550;5.418;2024-01-30T05:38:26;20.55;;;7.57;;
32295;SDS011;18781;51.550;5.418;2024-01-30T05:40:52;11.38;;;6.85;;
32295;SDS011;18781;51.550;5.418;2024-01-30T05:43:18;15.75;;;7.50;;
32295;SDS011;18781;51.550;5.418;2024-01-30T05:45:43;13.63;;;6.88;;
32295;SDS011;18781;51.550;5.418;2024-01-30T05:48:09;13.70;;;7.50;;
32295;SDS011;18781;51.550;5.418;2024-01-30T05:50:35;14.90;;;7.53;;
32295;SDS011;18781;51.550;5.418;2024-01-30T05:53:00;13.48;;;7.32;;
32295;SDS011;18781;51.550;5.418;2024-01-30T05:55:26;15.02;;;7.25;;
32295;SDS011;18781;51.550;5.418;2024-01-30T05:57:52;16.95;;;7.13;;
32295;SDS011;18781;51.550;5.418;2024-01-30T06:00:18;12.90;;;7.60;;
32295;SDS011;18781;51.550;5.418;2024-01-30T06:02:43;9.95;;;6.80;;
32295;SDS011;18781;51.550;5.418;2024-01-30T06:05:09;11.30;;;7.25;;
32295;SDS011;18781;51.550;5.418;2024-01-30T06:07:35;15.50;;;7.35;;
32295;SDS011;18781;51.550;5.418;2024-01-30T06:10:00;15.45;;;7.13;;
32295;SDS011;18781;51.550;5.418;2024-01-30T06:12:27;12.15;;;7.03;;
32295;SDS011;18781;51.550;5.418;2024-01-30T06:14:53;12.13;;;7.75;;
32295;SDS011;18781;51.550;5.418;2024-01-30T06:17:21;13.87;;;7.03;;
32295;SDS011;18781;51.550;5.418;2024-01-30T06:19:47;11.32;;;6.93;;
32295;SDS011;18781;51.550;5.418;2024-01-30T06:22:13;21.85;;;7.53;;
32295;SDS011;18781;51.550;5.418;2024-01-30T06:24:38;12.88;;;7.72;;
32295;SDS011;18781;51.550;5.418;2024-01-30T06:27:04;14.23;;;7.35;;
32295;SDS011;18781;51.550;5.418;2024-01-30T06:29:30;11.00;;;7.25;;
32295;SDS011;18781;51.550;5.418;2024-01-30T06:31:55;9.88;;;6.35;;
32295;SDS011;18781;51.550;5.418;2024-01-30T06:34:22;10.88;;;7.13;;
32295;SDS011;18781;51.550;5.418;2024-01-30T06:36:47;15.18;;;6.88;;
32295;SDS011;18781;51.550;5.418;2024-01-30T06:39:13;13.52;;;7.57;;
32295;SDS011;18781;51.550;5.418;2024-01-30T06:41:39;11.80;;;7.22;;
32295;SDS011;18781;51.550;5.418;2024-01-30T06:44:04;9.55;;;7.15;;
32295;SDS011;18781;51.550;5.418;2024-01-30T06:46:31;12.60;;;7.10;;
32295;SDS011;18781;51.550;5.418;2024-01-30T06:48:57;14.00;;;6.90;;
32295;SDS011;18781;51.550;5.418;2024-01-30T06:51:23;11.40;;;7.32;;
32295;SDS011;18781;51.550;5.418;2024-01-30T06:53:48;11.88;;;7.07;;
32295;SDS011;18781;51.550;5.418;2024-01-30T06:56:14;12.38;;;7.10;;
32295;SDS011;18781;51.550;5.418;2024-01-30T06:58:41;12.50;;;7.18;;
32295;SDS011;18781;51.550;5.418;2024-01-30T07:01:07;16.00;;;7.35;;
32295;SDS011;18781;51.550;5.418;2024-01-30T07:03:33;14.82;;;7.18;;
32295;SDS011;18781;51.550;5.418;2024-01-30T07:05:58;13.45;;;7.65;;
32295;SDS011;18781;51.550;5.418;2024-01-30T07:08:24;14.38;;;7.25;;
32295;SDS011;18781;51.550;5.418;2024-01-30T07:10:49;13.43;;;7.15;;
32295;SDS011;18781;51.550;5.418;2024-01-30T07:13:15;12.52;;;7.10;;
32295;SDS011;18781;51.550;5.418;2024-01-30T07:15:41;16.55;;;7.60;;
32295;SDS011;18781;51.550;5.418;2024-01-30T07:18:07;13.35;;;7.63;;
32295;SDS011;18781;51.550;5.418;2024-01-30T07:20:34;11.48;;;7.47;;
32295;SDS011;18781;51.550;5.418;2024-01-30T07:23:00;12.27;;;7.70;;
32295;SDS011;18781;51.550;5.418;2024-01-30T07:25:27;14.15;;;7.53;;
32295;SDS011;18781;51.550;5.418;2024-01-30T07:27:54;14.93;;;7.68;;
32295;SDS011;18781;51.550;5.418;2024-01-30T07:30:20;15.25;;;7.55;;
32295;SDS011;18781;51.550;5.418;2024-01-30T07:32:46;18.02;;;7.85;;
32295;SDS011;18781;51.550;5.418;2024-01-30T07:35:12;15.07;;;8.40;;
32295;SDS011;18781;51.550;5.418;2024-01-30T07:37:39;16.90;;;8.35;;
32295;SDS011;18781;51.550;5.418;2024-01-30T07:40:04;12.32;;;7.72;;
32295;SDS011;18781;51.550;5.418;2024-01-30T07:42:33;15.60;;;8.18;;
32295;SDS011;18781;51.550;5.418;2024-01-30T07:44:59;13.38;;;8.57;;
32295;SDS011;18781;51.550;5.418;2024-01-30T07:47:25;14.52;;;7.93;;
32295;SDS011;18781;51.550;5.418;2024-01-30T07:49:51;13.85;;;8.13;;
32295;SDS011;18781;51.550;5.418;2024-01-30T07:52:17;15.65;;;7.82;;
32295;SDS011;18781;51.550;5.418;2024-01-30T07:54:49;16.15;;;8.05;;
32295;SDS011;18781;51.550;5.418;2024-01-30T07:57:15;17.38;;;8.52;;
32295;SDS011;18781;51.550;5.418;2024-01-30T07:59:42;13.30;;;7.93;;
32295;SDS011;18781;51.550;5.418;2024-01-30T08:04:37;16.75;;;7.85;;
32295;SDS011;18781;51.550;5.418;2024-01-30T08:07:02;13.88;;;8.15;;
32295;SDS011;18781;51.550;5.418;2024-01-30T08:09:28;14.77;;;7.70;;
32295;SDS011;18781;51.550;5.418;2024-01-30T08:11:54;15.10;;;8.75;;
32295;SDS011;18781;51.550;5.418;2024-01-30T08:14:19;13.32;;;7.88;;
32295;SDS011;18781;51.550;5.418;2024-01-30T08:16:45;14.68;;;7.93;;
32295;SDS011;18781;51.550;5.418;2024-01-30T08:19:11;13.77;;;8.10;;
32295;SDS011;18781;51.550;5.418;2024-01-30T08:21:36;12.63;;;7.38;;
32295;SDS011;18781;51.550;5.418;2024-01-30T08:24:05;12.48;;;7.50;;
32295;SDS011;18781;51.550;5.418;2024-01-30T08:26:31;14.48;;;8.00;;
32295;SDS011;18781;51.550;5.418;2024-01-30T08:28:57;14.00;;;8.23;;
32295;SDS011;18781;51.550;5.418;2024-01-30T08:31:23;20.45;;;8.05;;
32295;SDS011;18781;51.550;5.418;2024-01-30T08:33:49;14.95;;;7.90;;
32295;SDS011;18781;51.550;5.418;2024-01-30T08:36:15;13.77;;;8.32;;
32295;SDS011;18781;51.550;5.418;2024-01-30T08:38:41;21.42;;;8.50;;
32295;SDS011;18781;51.550;5.418;2024-01-30T08:41:07;16.00;;;8.70;;
32295;SDS011;18781;51.550;5.418;2024-01-30T08:43:34;13.77;;;8.13;;
32295;SDS011;18781;51.550;5.418;2024-01-30T08:46:01;18.50;;;8.63;;
32295;SDS011;18781;51.550;5.418;2024-01-30T08:48:27;11.30;;;7.78;;
32295;SDS011;18781;51.550;5.418;2024-01-30T08:50:53;19.17;;;8.43;;
32295;SDS011;18781;51.550;5.418;2024-01-30T08:53:18;18.45;;;9.20;;
32295;SDS011;18781;51.550;5.418;2024-01-30T08:55:44;14.32;;;8.23;;
32295;SDS011;18781;51.550;5.418;2024-01-30T08:58:10;15.05;;;8.18;;
32295;SDS011;18781;51.550;5.418;2024-01-30T09:00:36;15.55;;;8.15;;
32295;SDS011;18781;51.550;5.418;2024-01-30T09:03:02;17.00;;;8.18;;
32295;SDS011;18781;51.550;5.418;2024-01-30T09:05:28;14.02;;;8.13;;
32295;SDS011;18781;51.550;5.418;2024-01-30T09:07:54;16.20;;;8.20;;
32295;SDS011;18781;51.550;5.418;2024-01-30T09:10:19;16.20;;;8.80;;
32295;SDS011;18781;51.550;5.418;2024-01-30T09:12:45;14.68;;;8.75;;
32295;SDS011;18781;51.550;5.418;2024-01-30T09:15:11;16.60;;;8.27;;
32295;SDS011;18781;51.550;5.418;2024-01-30T09:17:37;21.38;;;8.80;;
32295;SDS011;18781;51.550;5.418;2024-01-30T09:20:03;13.90;;;8.30;;
32295;SDS011;18781;51.550;5.418;2024-01-30T09:22:29;18.08;;;8.98;;
32295;SDS011;18781;51.550;5.418;2024-01-30T09:24:56;15.98;;;8.98;;
32295;SDS011;18781;51.550;5.418;2024-01-30T09:27:22;14.07;;;8.52;;
32295;SDS011;18781;51.550;5.418;2024-01-30T09:29:48;13.70;;;8.43;;
32295;SDS011;18781;51.550;5.418;2024-01-30T09:32:13;20.15;;;8.82;;
32295;SDS011;18781;51.550;5.418;2024-01-30T09:34:39;18.75;;;8.95;;
32295;SDS011;18781;51.550;5.418;2024-01-30T09:37:05;16.83;;;8.57;;
32295;SDS011;18781;51.550;5.418;2024-01-30T09:39:30;17.83;;;9.02;;
32295;SDS011;18781;51.550;5.418;2024-01-30T09:42:05;19.05;;;8.23;;
32295;SDS011;18781;51.550;5.418;2024-01-30T09:44:57;19.67;;;8.65;;
32295;SDS011;18781;51.550;5.418;2024-01-30T09:47:23;22.05;;;8.25;;
32295;SDS011;18781;51.550;5.418;2024-01-30T09:49:49;18.38;;;8.63;;
32295;SDS011;18781;51.550;5.418;2024-01-30T09:52:16;15.60;;;8.60;;
32295;SDS011;18781;51.550;5.418;2024-01-30T09:54:42;19.23;;;8.63;;
32295;SDS011;18781;51.550;5.418;2024-01-30T09:57:10;19.23;;;9.20;;
32295;SDS011;18781;51.550;5.418;2024-01-30T09:59:36;18.15;;;8.75;;
32295;SDS011;18781;51.550;5.418;2024-01-30T10:02:02;27.88;;;9.43;;
32295;SDS011;18781;51.550;5.418;2024-01-30T10:04:29;15.23;;;8.52;;
32295;SDS011;18781;51.550;5.418;2024-01-30T10:06:55;16.10;;;8.05;;
32295;SDS011;18781;51.550;5.418;2024-01-30T10:09:23;17.93;;;9.10;;
32295;SDS011;18781;51.550;5.418;2024-01-30T10:11:50;18.52;;;9.02;;
32295;SDS011;18781;51.550;5.418;2024-01-30T10:14:16;20.25;;;9.80;;
32295;SDS011;18781;51.550;5.418;2024-01-30T10:16:42;24.58;;;9.20;;
32295;SDS011;18781;51.550;5.418;2024-01-30T10:19:09;22.58;;;9.85;;
32295;SDS011;18781;51.550;5.418;2024-01-30T10:21:34;24.17;;;9.13;;
32295;SDS011;18781;51.550;5.418;2024-01-30T10:24:00;23.30;;;8.80;;
32295;SDS011;18781;51.550;5.418;2024-01-30T10:26:26;16.08;;;8.82;;
32295;SDS011;18781;51.550;5.418;2024-01-30T10:28:51;20.00;;;9.35;;
32295;SDS011;18781;51.550;5.418;2024-01-30T10:31:18;20.90;;;9.60;;
32295;SDS011;18781;51.550;5.418;2024-01-30T10:33:44;22.17;;;9.55;;
32295;SDS011;18781;51.550;5.418;2024-01-30T10:36:10;18.98;;;9.55;;
32295;SDS011;18781;51.550;5.418;2024-01-30T10:38:40;17.95;;;9.85;;
32295;SDS011;18781;51.550;5.418;2024-01-30T10:41:08;18.25;;;9.77;;
32295;SDS011;18781;51.550;5.418;2024-01-30T10:43:40;18.70;;;9.90;;
32295;SDS011;18781;51.550;5.418;2024-01-30T10:46:10;14.85;;;9.00;;
32295;SDS011;18781;51.550;5.418;2024-01-30T10:48:43;20.90;;;9.45;;
32295;SDS011;18781;51.550;5.418;2024-01-30T10:51:11;22.70;;;10.32;;
32295;SDS011;18781;51.550;5.418;2024-01-30T10:53:39;16.58;;;9.40;;
32295;SDS011;18781;51.550;5.418;2024-01-30T10:56:05;23.33;;;9.82;;
32295;SDS011;18781;51.550;5.418;2024-01-30T10:58:31;17.50;;;9.70;;
32295;SDS011;18781;51.550;5.418;2024-01-30T11:00:57;20.23;;;9.63;;
32295;SDS011;18781;51.550;5.418;2024-01-30T11:03:24;23.13;;;10.02;;
32295;SDS011;18781;51.550;5.418;2024-01-30T11:05:50;21.00;;;9.88;;
32295;SDS011;18781;51.550;5.418;2024-01-30T11:08:22;30.38;;;9.85;;
32295;SDS011;18781;51.550;5.418;2024-01-30T11:10:56;28.00;;;9.68;;
32295;SDS011;18781;51.550;5.418;2024-01-30T11:13:27;20.67;;;9.23;;
32295;SDS011;18781;51.550;5.418;2024-01-30T11:15:54;24.67;;;9.57;;
32295;SDS011;18781;51.550;5.418;2024-01-30T11:18:23;18.27;;;9.95;;
32295;SDS011;18781;51.550;5.418;2024-01-30T11:21:00;25.17;;;10.20;;
32295;SDS011;18781;51.550;5.418;2024-01-30T11:23:30;20.30;;;9.60;;
32295;SDS011;18781;51.550;5.418;2024-01-30T11:25:56;20.00;;;8.98;;
32295;SDS011;18781;51.550;5.418;2024-01-30T11:28:22;23.17;;;9.93;;
32295;SDS011;18781;51.550;5.418;2024-01-30T11:30:48;19.77;;;9.48;;
32295;SDS011;18781;51.550;5.418;2024-01-30T11:33:27;18.70;;;9.18;;
32295;SDS011;18781;51.550;5.418;2024-01-30T11:35:56;17.10;;;8.75;;
32295;SDS011;18781;51.550;5.418;2024-01-30T11:38:23;16.95;;;7.85;;
32295;SDS011;18781;51.550;5.418;2024-01-30T11:40:54;21.40;;;8.15;;
32295;SDS011;18781;51.550;5.418;2024-01-30T11:43:21;20.30;;;8.40;;
32295;SDS011;18781;51.550;5.418;2024-01-30T11:45:47;18.60;;;7.55;;
32295;SDS011;18781;51.550;5.418;2024-01-30T11:48:13;17.58;;;8.23;;
32295;SDS011;18781;51.550;5.418;2024-01-30T11:50:39;18.05;;;7.95;;
32295;SDS011;18781;51.550;5.418;2024-01-30T11:53:09;17.05;;;7.55;;
32295;SDS011;18781;51.550;5.418;2024-01-30T11:55:36;17.25;;;6.90;;
32295;SDS011;18781;51.550;5.418;2024-01-30T11:58:02;15.13;;;6.03;;
32295;SDS011;18781;51.550;5.418;2024-01-30T12:00:29;13.73;;;5.82;;
32295;SDS011;18781;51.550;5.418;2024-01-30T12:02:56;15.85;;;6.07;;
32295;SDS011;18781;51.550;5.418;2024-01-30T12:05:22;12.90;;;5.75;;
32295;SDS011;18781;51.550;5.418;2024-01-30T12:07:48;13.55;;;5.82;;
32295;SDS011;18781;51.550;5.418;2024-01-30T12:10:14;13.52;;;5.97;;
32295;SDS011;18781;51.550;5.418;2024-01-30T12:12:45;11.88;;;5.53;;
32295;SDS011;18781;51.550;5.418;2024-01-30T12:15:14;14.75;;;4.13;;
32295;SDS011;18781;51.550;5.418;2024-01-30T12:17:41;10.48;;;3.97;;
32295;SDS011;18781;51.550;5.418;2024-01-30T12:20:07;13.00;;;3.72;;
32295;SDS011;18781;51.550;5.418;2024-01-30T12:22:35;8.55;;;3.13;;
32295;SDS011;18781;51.550;5.418;2024-01-30T12:25:04;13.32;;;3.67;;
32295;SDS011;18781;51.550;5.418;2024-01-30T12:27:33;9.88;;;4.28;;
32295;SDS011;18781;51.550;5.418;2024-01-30T12:29:59;5.85;;;2.80;;
32295;SDS011;18781;51.550;5.418;2024-01-30T12:32:25;9.13;;;3.20;;
32295;SDS011;18781;51.550;5.418;2024-01-30T12:34:50;6.70;;;2.38;;
32295;SDS011;18781;51.550;5.418;2024-01-30T12:37:20;7.38;;;2.90;;
32295;SDS011;18781;51.550;5.418;2024-01-30T12:39:47;6.40;;;2.78;;
32295;SDS011;18781;51.550;5.418;2024-01-30T12:42:14;6.80;;;2.92;;
32295;SDS011;18781;51.550;5.418;2024-01-30T12:44:40;5.35;;;2.20;;
32295;SDS011;18781;51.550;5.418;2024-01-30T12:47:08;8.88;;;2.47;;
32295;SDS011;18781;51.550;5.418;2024-01-30T12:49:35;10.73;;;2.65;;
32295;SDS011;18781;51.550;5.418;2024-01-30T12:52:01;9.13;;;2.95;;
32295;SDS011;18781;51.550;5.418;2024-01-30T12:54:26;7.68;;;2.33;;
32295;SDS011;18781;51.550;5.418;2024-01-30T12:56:52;6.03;;;1.63;;
32295;SDS011;18781;51.550;5.418;2024-01-30T12:59:18;6.15;;;2.00;;
32295;SDS011;18781;51.550;5.418;2024-01-30T13:01:43;9.60;;;2.10;;
32295;SDS011;18781;51.550;5.418;2024-01-30T13:04:09;7.05;;;1.90;;
32295;SDS011;18781;51.550;5.418;2024-01-30T13:06:35;5.70;;;1.52;;
32295;SDS011;18781;51.550;5.418;2024-01-30T13:09:00;4.65;;;1.45;;
32295;SDS011;18781;51.550;5.418;2024-01-30T13:11:26;9.38;;;3.55;;
32295;SDS011;18781;51.550;5.418;2024-01-30T13:13:52;4.70;;;1.33;;
32295;SDS011;18781;51.550;5.418;2024-01-30T13:16:17;6.60;;;1.98;;
32295;SDS011;18781;51.550;5.418;2024-01-30T13:18:43;4.30;;;1.52;;
32295;SDS011;18781;51.550;5.418;2024-01-30T13:21:09;4.45;;;1.30;;
32295;SDS011;18781;51.550;5.418;2024-01-30T13:23:35;7.05;;;1.40;;
32295;SDS011;18781;51.550;5.418;2024-01-30T13:26:00;5.10;;;1.50;;
32295;SDS011;18781;51.550;5.418;2024-01-30T13:28:27;8.13;;;1.50;;
32295;SDS011;18781;51.550;5.418;2024-01-30T13:30:53;5.85;;;1.40;;
32295;SDS011;18781;51.550;5.418;2024-01-30T13:33:18;5.57;;;1.90;;
32295;SDS011;18781;51.550;5.418;2024-01-30T13:35:44;8.52;;;1.95;;
32295;SDS011;18781;51.550;5.418;2024-01-30T13:38:09;4.25;;;1.38;;
32295;SDS011;18781;51.550;5.418;2024-01-30T13:40:35;7.25;;;1.67;;
32295;SDS011;18781;51.550;5.418;2024-01-30T13:43:01;3.72;;;1.50;;
32295;SDS011;18781;51.550;5.418;2024-01-30T13:45:27;6.57;;;1.50;;
32295;SDS011;18781;51.550;5.418;2024-01-30T13:47:52;7.70;;;2.10;;
32295;SDS011;18781;51.550;5.418;2024-01-30T13:50:18;7.93;;;2.00;;
32295;SDS011;18781;51.550;5.418;2024-01-30T13:52:44;9.95;;;2.20;;
32295;SDS011;18781;51.550;5.418;2024-01-30T13:55:09;5.28;;;1.65;;
32295;SDS011;18781;51.550;5.418;2024-01-30T13:57:35;7.22;;;2.28;;
32295;SDS011;18781;51.550;5.418;2024-01-30T14:00:05;6.65;;;1.75;;
32295;SDS011;18781;51.550;5.418;2024-01-30T14:02:31;6.88;;;1.80;;
32295;SDS011;18781;51.550;5.418;2024-01-30T14:04:57;8.75;;;2.05;;
32295;SDS011;18781;51.550;5.418;2024-01-30T14:07:23;7.05;;;2.00;;
32295;SDS011;18781;51.550;5.418;2024-01-30T14:09:49;6.30;;;2.00;;
32295;SDS011;18781;51.550;5.418;2024-01-30T14:12:14;6.10;;;1.70;;
32295;SDS011;18781;51.550;5.418;2024-01-30T14:14:40;11.40;;;2.35;;
32295;SDS011;18781;51.550;5.418;2024-01-30T14:17:06;6.32;;;1.80;;
32295;SDS011;18781;51.550;5.418;2024-01-30T14:19:35;4.13;;;1.52;;
32295;SDS011;18781;51.550;5.418;2024-01-30T14:22:01;11.43;;;1.70;;
32295;SDS011;18781;51.550;5.418;2024-01-30T14:24:27;3.90;;;1.73;;
32295;SDS011;18781;51.550;5.418;2024-01-30T14:26:52;4.57;;;2.00;;
32295;SDS011;18781;51.550;5.418;2024-01-30T14:29:18;4.57;;;1.60;;
32295;SDS011;18781;51.550;5.418;2024-01-30T14:31:43;4.10;;;1.80;;
32295;SDS011;18781;51.550;5.418;2024-01-30T14:34:09;4.63;;;1.85;;